createdAt,value
2023-04-13T00:00:55.969Z,1.43
2023-04-13T00:03:24.926Z,1.47
2023-04-13T00:05:54.861Z,1.20
2023-04-13T00:08:27.809Z,1.50
2023-04-13T00:10:57.889Z,1.40
2023-04-13T00:13:27.379Z,1.30
2023-04-13T00:15:56.653Z,1.60
2023-04-13T00:18:25.643Z,1.20
2023-04-13T00:20:55.905Z,1.20
2023-04-13T00:23:24.435Z,1.30
2023-04-13T00:25:54.236Z,1.20
2023-04-13T00:28:25.920Z,1.30
2023-04-13T00:30:54.181Z,1.10
2023-04-13T00:33:24.112Z,1.27
2023-04-13T00:35:53.352Z,1.17
2023-04-13T00:38:25.226Z,1.20
2023-04-13T00:40:54.799Z,1.30
2023-04-13T00:43:25.683Z,1.20
2023-04-13T00:45:54.604Z,1.40
2023-04-13T00:48:25.583Z,1.27
2023-04-13T00:50:56.466Z,1.33
2023-04-13T00:53:25.586Z,1.37
2023-04-13T00:55:55.422Z,1.50
2023-04-13T00:58:26.580Z,1.33
2023-04-13T01:00:57.021Z,1.30
2023-04-13T01:03:26.064Z,1.23
2023-04-13T01:06:11.032Z,1.20
2023-04-13T01:08:47.673Z,1.30
2023-04-13T01:11:32.941Z,1.17
2023-04-13T01:14:11.680Z,1.40
2023-04-13T01:16:46.959Z,1.40
2023-04-13T01:19:29.103Z,1.50
2023-04-13T01:22:01.627Z,1.17
2023-04-13T01:24:40.646Z,1.20
2023-04-13T01:27:16.831Z,1.10
2023-04-13T01:29:50.872Z,1.10
2023-04-13T01:32:22.236Z,0.90
2023-04-13T01:38:33.451Z,1.27
2023-04-13T01:41:04.727Z,1.03
2023-04-13T01:43:33.715Z,1.00
2023-04-13T01:46:09.320Z,1.40
2023-04-13T01:48:47.436Z,1.10
2023-04-13T01:51:20.783Z,1.00
2023-04-13T01:53:55.986Z,1.10
2023-04-13T01:56:26.574Z,1.10
2023-04-13T01:58:59.832Z,1.10
2023-04-13T02:01:32.525Z,1.30
2023-04-13T02:04:24.578Z,1.23
2023-04-13T02:06:54.847Z,0.90
2023-04-13T02:09:25.268Z,1.00
2023-04-13T02:11:54.843Z,1.10
2023-04-13T02:14:27.160Z,1.00
2023-04-13T02:17:02.845Z,1.00
2023-04-13T02:19:37.095Z,0.90
2023-04-13T02:22:08.854Z,1.00
2023-04-13T02:24:39.082Z,1.40
2023-04-13T02:27:09.391Z,1.33
2023-04-13T02:29:41.906Z,0.90
2023-04-13T02:32:14.089Z,1.13
2023-04-13T02:34:46.153Z,1.00
2023-04-13T02:37:19.528Z,1.10
2023-04-13T02:39:49.361Z,1.10
2023-04-13T02:42:17.661Z,0.87
2023-04-13T02:44:45.859Z,1.00
2023-04-13T02:47:15.417Z,1.10
2023-04-13T02:49:43.750Z,1.00
2023-04-13T02:52:12.045Z,1.10
2023-04-13T02:54:40.668Z,1.07
2023-04-13T02:57:11.029Z,1.00
2023-04-13T02:59:39.308Z,1.00
2023-04-13T03:02:10.430Z,1.00
2023-04-13T03:04:40.478Z,0.90
2023-04-13T03:07:10.832Z,1.30
2023-04-13T03:09:39.867Z,1.10
2023-04-13T03:12:14.030Z,0.97
2023-04-13T03:14:42.464Z,1.00
2023-04-13T03:17:13.039Z,1.00
2023-04-13T03:19:42.794Z,1.20
2023-04-13T03:22:11.319Z,1.20
2023-04-13T03:24:40.763Z,1.40
2023-04-13T03:27:09.141Z,1.10
2023-04-13T03:29:41.701Z,1.33
2023-04-13T03:32:26.060Z,1.07
2023-04-13T03:35:03.673Z,0.90
2023-04-13T03:37:40.557Z,1.30
2023-04-13T03:40:14.239Z,2.13
2023-04-13T03:42:50.524Z,1.30
2023-04-13T03:45:22.156Z,1.00
2023-04-13T03:48:39.552Z,1.50
2023-04-13T03:51:16.323Z,1.50
2023-04-13T03:53:47.648Z,1.63
2023-04-13T03:56:17.152Z,1.30
2023-04-13T03:58:55.468Z,1.60
2023-04-13T04:01:27.004Z,1.93
2023-04-13T04:03:57.999Z,1.20
2023-04-13T04:06:28.381Z,1.60
2023-04-13T04:08:56.519Z,1.90
2023-04-13T04:11:25.104Z,1.70
2023-04-13T04:14:01.573Z,1.30
2023-04-13T04:16:32.260Z,1.20
2023-04-13T04:19:07.572Z,1.33
2023-04-13T04:24:33.672Z,1.30
2023-04-13T04:27:10.197Z,1.50
2023-04-13T04:29:38.353Z,1.40
2023-04-13T04:32:11.201Z,0.93
2023-04-13T04:34:43.283Z,1.00
2023-04-13T04:37:20.267Z,2.10
2023-04-13T04:39:49.968Z,1.40
2023-04-13T04:42:19.893Z,2.00
2023-04-13T04:44:49.910Z,1.50
2023-04-13T04:47:22.286Z,1.43
2023-04-13T04:49:52.113Z,1.50
2023-04-13T04:52:24.677Z,1.20
2023-04-13T04:54:54.377Z,1.40
2023-04-13T04:57:24.206Z,1.60
2023-04-13T04:59:56.339Z,1.77
2023-04-13T05:02:27.022Z,1.47
2023-04-13T05:04:57.545Z,1.20
2023-04-13T05:07:28.778Z,1.60
2023-04-13T05:09:59.030Z,1.30
2023-04-13T05:12:28.311Z,1.93
2023-04-13T05:14:57.910Z,1.47
2023-04-13T05:17:26.113Z,1.40
2023-04-13T05:19:57.274Z,1.40
2023-04-13T05:22:29.491Z,1.50
2023-04-13T05:24:57.694Z,2.10
2023-04-13T05:27:31.665Z,1.50
2023-04-13T05:30:42.505Z,1.63
2023-04-13T05:33:12.186Z,1.47
2023-04-13T05:35:47.167Z,1.70
2023-04-13T05:41:35.064Z,3.00
2023-04-13T05:44:10.152Z,1.40
2023-04-13T05:49:48.295Z,1.23
2023-04-13T05:52:17.191Z,1.30
2023-04-13T05:54:46.798Z,2.00
2023-04-13T05:57:15.002Z,1.63
2023-04-13T05:59:43.207Z,1.67
2023-04-13T06:02:11.725Z,1.60
2023-04-13T06:04:40.167Z,1.60
2023-04-13T06:07:08.578Z,1.57
2023-04-13T06:09:36.721Z,1.33
2023-04-13T06:12:06.683Z,1.37
2023-04-13T06:14:39.550Z,1.43
2023-04-13T06:17:19.713Z,1.03
2023-04-13T06:19:48.302Z,1.30
2023-04-13T06:22:16.780Z,2.00
2023-04-13T06:24:44.930Z,2.33
2023-04-13T06:27:36.416Z,2.10
2023-04-13T06:30:20.619Z,1.93
2023-04-13T06:32:54.505Z,1.80
2023-04-13T06:35:23.230Z,1.43
2023-04-13T06:37:51.821Z,1.43
2023-04-13T06:40:21.169Z,1.90
2023-04-13T06:42:51.116Z,1.50
2023-04-13T06:45:20.820Z,1.60
2023-04-13T06:47:53.725Z,1.10
2023-04-13T06:50:36.058Z,1.50
2023-04-13T06:53:05.652Z,1.37
2023-04-13T06:56:01.284Z,1.50
2023-04-13T06:58:36.322Z,1.37
2023-04-13T07:01:04.692Z,1.50
2023-04-13T07:03:34.111Z,1.50
2023-04-13T07:06:03.838Z,1.70
2023-04-13T07:08:34.720Z,1.90
2023-04-13T07:11:03.595Z,1.43
2023-04-13T07:13:33.984Z,1.90
2023-04-13T07:16:02.796Z,1.67
2023-04-13T07:18:31.126Z,1.43
2023-04-13T07:20:59.367Z,1.90
2023-04-13T07:23:28.830Z,1.37
2023-04-13T07:25:57.030Z,1.67
2023-04-13T07:28:25.637Z,1.60
2023-04-13T07:30:55.550Z,1.60
2023-04-13T07:33:24.726Z,1.60
2023-04-13T07:35:54.814Z,2.03
2023-04-13T07:38:30.286Z,1.80
2023-04-13T07:41:05.604Z,1.67
2023-04-13T07:43:47.366Z,1.47
2023-04-13T07:46:24.112Z,1.40
2023-04-13T07:49:25.906Z,1.77
2023-04-13T07:51:55.362Z,1.80
2023-04-13T07:54:26.479Z,1.50
2023-04-13T07:56:57.083Z,1.80
2023-04-13T08:03:27.093Z,1.40
2023-04-13T08:06:01.951Z,2.10
2023-04-13T08:08:34.694Z,1.70
2023-04-13T08:11:03.732Z,1.80
2023-04-13T08:13:36.431Z,1.93
2023-04-13T08:16:25.077Z,1.83
2023-04-13T08:21:45.601Z,2.30
2023-04-13T08:24:13.975Z,2.13
2023-04-13T08:26:42.398Z,2.20
2023-04-13T08:29:11.454Z,1.83
2023-04-13T08:31:40.759Z,2.00
2023-04-13T08:34:11.802Z,2.17
2023-04-13T08:36:39.980Z,1.70
2023-04-13T08:39:09.951Z,1.80
2023-04-13T08:41:41.497Z,1.83
2023-04-13T08:44:10.093Z,1.70
2023-04-13T08:46:39.096Z,1.93
2023-04-13T08:49:11.379Z,1.60
2023-04-13T08:51:42.187Z,1.73
2023-04-13T08:54:12.032Z,1.80
2023-04-13T08:56:46.634Z,1.53
2023-04-13T08:59:17.243Z,1.57
2023-04-13T09:01:48.088Z,1.77
2023-04-13T09:04:22.016Z,1.77
2023-04-13T09:07:02.912Z,2.53
2023-04-13T09:09:32.439Z,1.97
2023-04-13T09:12:01.195Z,1.73
2023-04-13T09:14:31.630Z,1.50
2023-04-13T09:16:59.950Z,1.60
2023-04-13T09:19:34.013Z,2.10
2023-04-13T09:22:15.128Z,1.57
2023-04-13T09:24:44.606Z,1.87
2023-04-13T09:27:20.280Z,2.30
2023-04-13T09:29:54.920Z,1.70
2023-04-13T09:32:23.900Z,1.70
2023-04-13T09:35:05.178Z,1.70
2023-04-13T09:37:54.858Z,1.77
2023-04-13T09:40:23.624Z,1.80
2023-04-13T09:42:56.738Z,1.57
2023-04-13T09:45:25.207Z,1.70
2023-04-13T09:47:56.080Z,1.90
2023-04-13T09:50:28.502Z,1.60
2023-04-13T09:53:06.106Z,1.87
2023-04-13T09:55:37.069Z,1.80
2023-04-13T10:01:24.465Z,1.67
2023-04-13T10:03:52.897Z,2.40
2023-04-13T10:06:22.634Z,1.63
2023-04-13T10:08:51.360Z,2.20
2023-04-13T10:11:28.814Z,1.57
2023-04-13T10:14:00.094Z,1.73
2023-04-13T10:16:44.264Z,2.27
2023-04-13T10:19:15.169Z,1.60
2023-04-13T10:21:48.767Z,1.43
2023-04-13T10:24:17.667Z,1.53
2023-04-13T10:30:19.942Z,1.40
2023-04-13T10:32:48.167Z,1.30
2023-04-13T10:35:16.862Z,1.30
2023-04-13T10:38:13.207Z,1.27
2023-04-13T10:40:45.420Z,1.40
2023-04-13T10:43:13.840Z,1.50
2023-04-13T10:45:42.199Z,1.70
2023-04-13T10:48:22.591Z,1.37
2023-04-13T10:51:00.078Z,3.63
2023-04-13T10:53:31.202Z,2.50
2023-04-13T10:55:59.659Z,1.60
2023-04-13T10:58:35.597Z,1.67
2023-04-13T11:01:31.801Z,1.23
2023-04-13T11:04:11.120Z,1.40
2023-04-13T11:06:43.392Z,1.70
2023-04-13T11:09:15.981Z,1.20
2023-04-13T11:17:18.145Z,1.33
2023-04-13T11:19:50.684Z,1.50
2023-04-13T11:22:19.540Z,1.50
2023-04-13T11:24:55.293Z,1.60
2023-04-13T11:27:27.171Z,1.43
2023-04-13T11:30:00.075Z,1.67
2023-04-13T11:32:33.676Z,1.80
2023-04-13T11:35:40.388Z,1.50
2023-04-13T11:38:18.487Z,1.83
2023-04-13T11:40:48.864Z,1.37
2023-04-13T11:43:17.689Z,1.30
2023-04-13T11:46:01.690Z,1.50
2023-04-13T11:48:30.415Z,1.60
2023-04-13T11:51:01.132Z,1.43
2023-04-13T11:53:33.719Z,1.53
2023-04-13T11:56:04.411Z,1.30
2023-04-13T11:58:33.436Z,1.60
2023-04-13T12:01:13.828Z,1.50
2023-04-13T12:03:57.603Z,1.30
2023-04-13T12:06:30.961Z,1.63
2023-04-13T12:09:09.309Z,1.40
2023-04-13T12:11:48.546Z,1.50
2023-04-13T12:17:25.663Z,1.80
2023-04-13T12:20:00.552Z,1.50
2023-04-13T12:22:51.565Z,1.30
2023-04-13T12:25:25.175Z,1.60
2023-04-13T12:27:55.756Z,1.03
2023-04-13T12:30:28.177Z,1.20
2023-04-13T12:32:57.381Z,1.00
2023-04-13T12:35:26.217Z,1.40
2023-04-13T12:38:17.946Z,1.30
2023-04-13T12:40:46.369Z,1.17
2023-04-13T12:43:16.166Z,1.17
2023-04-13T12:45:50.373Z,1.20
2023-04-13T12:48:18.501Z,1.57
2023-04-13T12:50:48.280Z,0.90
2023-04-13T12:53:17.873Z,0.80
2023-04-13T12:55:46.251Z,1.00
2023-04-13T12:58:17.122Z,1.50
2023-04-13T13:00:45.318Z,1.00
2023-04-13T13:03:14.948Z,1.10
2023-04-13T13:05:43.441Z,1.20
2023-04-13T13:08:11.484Z,1.07
2023-04-13T13:10:40.118Z,1.43
2023-04-13T13:13:08.296Z,1.23
2023-04-13T13:15:37.771Z,1.60
2023-04-13T13:18:06.855Z,1.40
2023-04-13T13:20:41.439Z,0.90
2023-04-13T13:23:15.933Z,1.20
2023-04-13T13:25:57.078Z,0.90
2023-04-13T13:28:32.459Z,0.80
2023-04-13T13:31:02.095Z,0.90
2023-04-13T13:33:30.153Z,0.90
2023-04-13T13:35:58.178Z,0.90
2023-04-13T13:39:11.021Z,1.10
2023-04-13T13:41:42.575Z,1.10
2023-04-13T13:44:10.850Z,1.10
2023-04-13T13:46:40.414Z,1.10
2023-04-13T13:49:13.869Z,1.00
2023-04-13T13:51:55.632Z,1.03
2023-04-13T13:54:26.007Z,1.03
2023-04-13T13:56:55.270Z,1.10
2023-04-13T13:59:26.515Z,1.00
2023-04-13T14:02:10.056Z,1.60
2023-04-13T14:07:35.281Z,1.30
2023-04-13T14:10:18.945Z,0.90
2023-04-13T14:12:51.373Z,1.00
2023-04-13T14:18:14.623Z,1.03
2023-04-13T14:21:04.197Z,1.20
2023-04-13T14:23:38.270Z,1.00
2023-04-13T14:26:06.562Z,1.00
2023-04-13T14:28:36.811Z,0.93
2023-04-13T14:31:05.605Z,1.00
2023-04-13T14:33:35.354Z,1.00
2023-04-13T14:36:05.678Z,1.50
2023-04-13T14:38:56.279Z,1.30
2023-04-13T14:42:06.798Z,3.33
2023-04-13T14:44:43.578Z,1.20
2023-04-13T14:47:19.728Z,0.97
2023-04-13T14:50:01.544Z,1.10
2023-04-13T14:52:29.712Z,0.90
2023-04-13T14:55:09.148Z,0.97
2023-04-13T14:57:57.763Z,0.90
2023-04-13T15:00:43.157Z,0.90
2023-04-13T15:03:42.015Z,0.90
2023-04-13T15:06:16.633Z,0.80
2023-04-13T15:09:06.196Z,0.70
2023-04-13T15:11:34.993Z,0.90
2023-04-13T15:17:10.592Z,0.87
2023-04-13T15:19:44.896Z,0.90
2023-04-13T15:22:16.698Z,0.90
2023-04-13T15:24:47.119Z,1.00
2023-04-13T15:27:19.430Z,1.07
2023-04-13T15:30:00.234Z,1.10
2023-04-13T15:32:32.189Z,1.03
2023-04-13T15:35:05.975Z,1.00
2023-04-13T15:37:36.464Z,0.93
2023-04-13T15:40:07.981Z,1.20
2023-04-13T15:43:02.435Z,0.90
2023-04-13T15:45:35.076Z,1.20
2023-04-13T15:48:42.194Z,1.10
2023-04-13T15:52:01.351Z,0.90
2023-04-13T15:54:52.497Z,1.20
2023-04-13T15:57:45.551Z,1.20
2023-04-13T16:00:19.929Z,1.10
2023-04-13T16:02:57.016Z,1.50
2023-04-13T16:05:33.020Z,1.30
2023-04-13T16:08:01.733Z,1.30
2023-04-13T16:10:31.484Z,1.10
2023-04-13T16:13:49.263Z,1.37
2023-04-13T16:16:24.162Z,1.10
2023-04-13T16:19:03.659Z,1.07
2023-04-13T16:21:57.951Z,1.00
2023-04-13T16:24:37.527Z,1.13
2023-04-13T16:27:25.260Z,1.00
2023-04-13T16:37:04.442Z,1.00
2023-04-13T16:39:42.897Z,0.80
2023-04-13T16:42:16.159Z,1.00
2023-04-13T16:44:46.712Z,0.90
2023-04-13T16:47:17.541Z,0.93
2023-04-13T16:49:49.291Z,1.20
2023-04-13T16:52:19.155Z,1.00
2023-04-13T16:58:34.990Z,1.20
2023-04-13T17:01:03.132Z,1.07
2023-04-13T17:03:55.513Z,1.50
2023-04-13T17:06:27.253Z,1.13
2023-04-13T17:08:57.389Z,1.50
2023-04-13T17:11:38.269Z,1.10
2023-04-13T17:17:10.791Z,1.40
2023-04-13T17:19:40.071Z,1.47
2023-04-13T17:22:21.444Z,2.80
2023-04-13T17:24:50.780Z,2.37
2023-04-13T17:27:52.694Z,2.60
2023-04-13T17:30:21.527Z,17.43
2023-04-13T17:32:51.108Z,3.35
2023-04-13T17:35:19.708Z,2.23
2023-04-13T17:37:48.075Z,1.70
2023-04-13T17:40:16.502Z,2.00
2023-04-13T17:42:45.578Z,1.47
2023-04-13T17:45:21.960Z,1.67
2023-04-13T17:47:58.131Z,2.97
2023-04-13T17:50:26.716Z,8.10
2023-04-13T17:52:54.936Z,2.73
2023-04-13T17:55:32.316Z,2.50
2023-04-13T17:58:07.257Z,1.50
2023-04-13T18:00:36.362Z,1.00
2023-04-13T18:03:09.279Z,1.30
2023-04-13T18:06:01.806Z,1.60
2023-04-13T18:08:30.889Z,1.20
2023-04-13T18:10:59.798Z,1.20
2023-04-13T18:13:28.366Z,1.40
2023-04-13T18:15:57.146Z,1.30
2023-04-13T18:21:14.489Z,1.77
2023-04-13T18:23:48.132Z,2.30
2023-04-13T18:26:38.477Z,2.10
2023-04-13T18:29:08.146Z,4.63
2023-04-13T18:31:36.645Z,2.47
2023-04-13T18:34:10.545Z,1.90
2023-04-13T18:36:51.411Z,1.80
2023-04-13T18:39:19.817Z,2.00
2023-04-13T18:42:03.531Z,1.60
2023-04-13T18:44:54.525Z,1.80
2023-04-13T18:47:29.804Z,1.90
2023-04-13T19:00:14.058Z,2.00
2023-04-13T19:03:19.935Z,2.13
2023-04-13T19:06:26.528Z,2.30
2023-04-13T19:12:02.900Z,2.27
2023-04-13T19:14:31.728Z,2.70
2023-04-13T19:20:07.860Z,3.60
2023-04-13T19:22:37.772Z,4.43
2023-04-13T19:25:16.572Z,3.00
2023-04-13T19:28:04.812Z,2.70
2023-04-13T19:30:38.627Z,3.00
2023-04-13T19:33:42.262Z,2.87
2023-04-13T19:36:13.128Z,2.30
2023-04-13T19:38:45.517Z,2.20
2023-04-13T19:41:42.022Z,2.60
2023-04-13T19:44:29.829Z,2.83
2023-04-13T19:47:04.642Z,2.47
2023-04-13T19:49:40.700Z,2.20
2023-04-13T19:52:16.103Z,2.30
2023-04-13T19:54:46.309Z,1.90
2023-04-13T19:59:51.682Z,2.60
2023-04-13T20:02:20.152Z,6.50
2023-04-13T20:05:19.935Z,7.17
2023-04-13T20:07:49.688Z,7.27
2023-04-13T20:13:17.367Z,6.60
2023-04-13T20:15:53.849Z,6.03
2023-04-13T20:18:22.427Z,5.73
2023-04-13T20:20:56.513Z,5.00
2023-04-13T20:23:31.587Z,4.30
2023-04-13T20:25:59.884Z,4.37
2023-04-13T20:28:54.167Z,4.87
2023-04-13T20:31:26.049Z,5.67
2023-04-13T20:33:56.325Z,5.00
2023-04-13T20:36:26.069Z,5.60
2023-04-13T20:38:55.059Z,6.57
2023-04-13T20:41:24.544Z,5.60
2023-04-13T20:43:53.035Z,6.03
2023-04-13T20:46:25.386Z,5.40
2023-04-13T20:48:53.884Z,5.03
2023-04-13T20:51:32.731Z,4.60
2023-04-13T20:54:03.121Z,3.63
2023-04-13T20:56:31.624Z,4.00
2023-04-13T20:59:00.926Z,6.63
2023-04-13T21:01:30.355Z,3.53
2023-04-13T21:03:58.801Z,3.70
2023-04-13T21:06:30.070Z,3.70
2023-04-13T21:08:59.193Z,3.87
2023-04-13T21:11:27.517Z,3.40
2023-04-13T21:13:55.861Z,3.70
2023-04-13T21:16:25.841Z,3.70
2023-04-13T21:18:54.722Z,3.87
2023-04-13T21:21:24.949Z,3.33
2023-04-13T21:23:55.053Z,3.70
2023-04-13T21:26:26.644Z,3.30
2023-04-13T21:28:55.992Z,3.63
2023-04-13T21:31:24.133Z,3.50
2023-04-13T21:33:52.201Z,3.20
2023-04-13T21:38:51.309Z,3.13
2023-04-13T21:41:29.047Z,3.57
2023-04-13T21:43:57.347Z,3.80
2023-04-13T21:46:25.586Z,3.17
2023-04-13T21:48:53.847Z,3.53
2023-04-13T21:51:22.097Z,2.80
2023-04-13T21:53:50.216Z,3.40
2023-04-13T21:56:18.447Z,3.10
2023-04-13T21:58:47.938Z,3.30
2023-04-13T22:01:16.401Z,3.10
2023-04-13T22:03:47.801Z,3.83
2023-04-13T22:06:16.474Z,4.37
2023-04-13T22:08:44.739Z,4.67
2023-04-13T22:11:13.047Z,4.80
2023-04-13T22:13:41.646Z,10.47
2023-04-13T22:16:11.366Z,4.37
2023-04-13T22:18:39.905Z,3.17
2023-04-13T22:21:08.200Z,3.17
2023-04-13T22:23:39.739Z,3.00
2023-04-13T22:26:07.917Z,3.30
2023-04-13T22:28:36.021Z,3.20
2023-04-13T22:31:08.181Z,3.60
2023-04-13T22:33:38.410Z,3.47
2023-04-13T22:36:08.182Z,3.67
2023-04-13T22:38:36.314Z,3.70
2023-04-13T22:41:08.110Z,4.00
2023-04-13T22:43:39.863Z,3.47
2023-04-13T22:46:07.969Z,3.23
2023-04-13T22:48:37.453Z,3.73
2023-04-13T22:51:06.017Z,3.60
2023-04-13T22:53:34.218Z,3.60
2023-04-13T22:56:02.629Z,3.77
2023-04-13T22:58:30.829Z,3.70
2023-04-13T23:01:00.054Z,4.00
2023-04-13T23:03:28.323Z,3.60
2023-04-13T23:05:58.139Z,3.40
2023-04-13T23:08:26.414Z,3.57
2023-04-13T23:10:54.582Z,3.93
2023-04-13T23:13:22.778Z,4.13
2023-04-13T23:15:50.942Z,4.30
2023-04-13T23:18:19.093Z,5.23
2023-04-13T23:20:47.468Z,4.37
2023-04-13T23:23:16.881Z,3.70
2023-04-13T23:25:44.961Z,3.60
2023-04-13T23:28:15.032Z,3.70
2023-04-13T23:30:43.514Z,4.13
2023-04-13T23:33:11.676Z,3.90
2023-04-13T23:35:39.974Z,4.67
2023-04-13T23:38:08.174Z,3.90
2023-04-13T23:40:37.764Z,3.17
2023-04-13T23:43:05.960Z,3.37
2023-04-13T23:45:34.127Z,3.73
2023-04-13T23:48:02.391Z,3.30
2023-04-13T23:50:30.760Z,3.73
2023-04-13T23:52:59.854Z,3.50
2023-04-13T23:55:29.042Z,4.00
2023-04-13T23:57:58.577Z,4.30
